createdAt,value
2017-10-13T00:01:10.832Z,12.87
2017-10-13T00:03:38.398Z,12.87
2017-10-13T00:06:05.979Z,12.78
2017-10-13T00:08:33.574Z,12.79
2017-10-13T00:11:01.150Z,12.81
2017-10-13T00:13:28.685Z,12.63
2017-10-13T00:15:56.285Z,12.66
2017-10-13T00:18:23.817Z,12.72
2017-10-13T00:20:51.350Z,12.64
2017-10-13T00:23:18.963Z,12.55
2017-10-13T00:25:46.494Z,12.44
2017-10-13T00:28:14.010Z,12.31
2017-10-13T00:30:41.722Z,12.34
2017-10-13T00:33:09.282Z,12.37
2017-10-13T00:35:36.802Z,12.29
2017-10-13T00:38:04.381Z,12.28
2017-10-13T00:40:31.991Z,12.25
2017-10-13T00:42:59.505Z,12.12
2017-10-13T00:45:28.033Z,12.18
2017-10-13T00:47:55.665Z,12.04
2017-10-13T00:50:23.426Z,12.01
2017-10-13T00:52:51.010Z,12.00
2017-10-13T00:55:18.546Z,11.84
2017-10-13T00:57:46.183Z,11.97
2017-10-13T01:00:13.790Z,11.83
2017-10-13T01:02:41.366Z,12.05
2017-10-13T01:05:09.341Z,11.98
2017-10-13T01:07:36.982Z,11.68
2017-10-13T01:10:04.738Z,11.66
2017-10-13T01:12:32.293Z,11.66
2017-10-13T01:14:59.931Z,11.70
2017-10-13T01:17:27.475Z,11.60
2017-10-13T01:19:55.074Z,11.59
2017-10-13T01:22:22.646Z,11.74
2017-10-13T01:24:50.274Z,11.68
2017-10-13T01:27:17.840Z,11.68
2017-10-13T01:29:45.852Z,11.80
2017-10-13T01:32:13.474Z,11.81
2017-10-13T01:34:41.114Z,11.95
2017-10-13T01:37:08.967Z,11.78
2017-10-13T01:39:36.730Z,11.74
2017-10-13T01:42:04.370Z,11.71
2017-10-13T01:44:31.964Z,11.61
2017-10-13T01:46:59.610Z,11.54
2017-10-13T01:49:27.171Z,11.56
2017-10-13T01:51:54.787Z,11.47
2017-10-13T01:54:22.400Z,11.54
2017-10-13T01:56:50.236Z,11.76
2017-10-13T01:59:18.044Z,11.57
2017-10-13T02:01:45.667Z,11.43
2017-10-13T02:04:13.483Z,11.52
2017-10-13T02:06:41.117Z,11.47
2017-10-13T02:09:08.747Z,11.45
2017-10-13T02:11:36.365Z,11.42
2017-10-13T02:14:03.955Z,11.39
2017-10-13T02:16:31.524Z,11.29
2017-10-13T02:18:59.070Z,11.46
2017-10-13T02:21:26.695Z,11.47
2017-10-13T02:23:54.314Z,11.45
2017-10-13T02:26:21.921Z,11.38
2017-10-13T02:28:49.479Z,11.27
2017-10-13T02:31:17.043Z,11.39
2017-10-13T02:33:44.599Z,11.44
2017-10-13T02:36:12.153Z,11.31
2017-10-13T02:38:39.774Z,11.25
2017-10-13T02:41:07.500Z,11.26
2017-10-13T02:43:35.080Z,11.10
2017-10-13T02:46:02.697Z,11.04
2017-10-13T02:48:30.277Z,10.96
2017-10-13T02:50:57.870Z,11.15
2017-10-13T02:53:25.478Z,10.62
2017-10-13T02:55:53.127Z,10.59
2017-10-13T02:58:20.664Z,10.94
2017-10-13T03:00:48.325Z,11.00
2017-10-13T03:03:15.927Z,10.79
2017-10-13T03:05:43.482Z,10.72
2017-10-13T03:08:11.107Z,10.77
2017-10-13T03:10:38.642Z,10.61
2017-10-13T03:13:06.157Z,10.62
2017-10-13T03:15:33.731Z,10.53
2017-10-13T03:18:01.269Z,10.64
2017-10-13T03:20:29.082Z,10.49
2017-10-13T03:22:56.647Z,10.49
2017-10-13T03:25:24.181Z,10.53
2017-10-13T03:27:51.772Z,10.47
2017-10-13T03:30:19.431Z,10.53
2017-10-13T03:32:47.011Z,10.65
2017-10-13T03:35:14.581Z,10.74
2017-10-13T03:37:42.228Z,10.63
2017-10-13T03:40:09.771Z,10.48
2017-10-13T03:42:37.332Z,10.53
2017-10-13T03:45:05.046Z,10.64
2017-10-13T03:47:32.706Z,10.50
2017-10-13T03:50:00.256Z,10.61
2017-10-13T03:52:27.840Z,10.66
2017-10-13T03:54:55.450Z,10.54
2017-10-13T03:57:23.725Z,10.19
2017-10-13T03:59:51.386Z,10.19
2017-10-13T04:02:18.999Z,10.46
2017-10-13T04:04:46.594Z,10.45
2017-10-13T04:07:14.155Z,10.69
2017-10-13T04:09:41.756Z,10.86
2017-10-13T04:12:09.514Z,10.63
2017-10-13T04:14:37.101Z,10.79
2017-10-13T04:17:04.759Z,10.72
2017-10-13T04:19:33.496Z,10.52
2017-10-13T04:22:01.287Z,10.61
2017-10-13T04:24:28.903Z,10.70
2017-10-13T04:26:56.485Z,10.66
2017-10-13T04:29:24.306Z,10.46
2017-10-13T04:31:51.886Z,10.45
2017-10-13T04:34:19.663Z,10.49
2017-10-13T04:36:47.773Z,10.45
2017-10-13T04:39:15.346Z,10.39
2017-10-13T04:41:42.878Z,10.42
2017-10-13T04:44:10.709Z,10.44
2017-10-13T04:46:38.260Z,10.51
2017-10-13T04:49:05.851Z,10.62
2017-10-13T04:51:33.654Z,10.97
2017-10-13T04:54:01.245Z,11.38
2017-10-13T04:56:28.789Z,11.61
2017-10-13T04:58:56.336Z,11.97
2017-10-13T05:01:23.895Z,12.22
2017-10-13T05:03:51.443Z,12.05
2017-10-13T05:06:19.013Z,11.89
2017-10-13T05:08:46.598Z,11.96
2017-10-13T05:11:14.147Z,11.70
2017-10-13T05:13:42.020Z,11.65
2017-10-13T05:16:09.585Z,11.30
2017-10-13T05:18:37.132Z,11.58
2017-10-13T05:21:04.691Z,12.40
2017-10-13T05:23:32.302Z,13.14
2017-10-13T05:26:00.050Z,13.40
2017-10-13T05:28:27.567Z,14.33
2017-10-13T05:30:55.164Z,14.57
2017-10-13T05:33:22.807Z,15.16
2017-10-13T05:35:50.349Z,15.20
2017-10-13T05:38:17.915Z,15.81
2017-10-13T05:40:45.487Z,16.12
2017-10-13T05:43:13.091Z,16.16
2017-10-13T05:45:40.710Z,16.54
2017-10-13T05:48:08.580Z,16.81
2017-10-13T05:50:36.119Z,16.92
2017-10-13T05:53:03.698Z,17.65
2017-10-13T05:55:31.223Z,17.81
2017-10-13T05:57:58.843Z,17.42
2017-10-13T06:00:26.440Z,18.05
2017-10-13T06:02:53.980Z,18.37
2017-10-13T06:05:21.521Z,18.56
2017-10-13T06:07:49.121Z,18.93
2017-10-13T06:10:16.693Z,19.26
2017-10-13T06:12:44.264Z,19.68
2017-10-13T06:15:11.910Z,19.86
2017-10-13T06:17:39.578Z,19.99
2017-10-13T06:20:07.111Z,20.35
2017-10-13T06:22:34.699Z,20.64
2017-10-13T06:25:02.266Z,20.91
2017-10-13T06:27:29.825Z,20.76
2017-10-13T06:29:57.423Z,21.12
2017-10-13T06:32:25.031Z,21.62
2017-10-13T06:34:52.557Z,21.94
2017-10-13T06:37:20.188Z,21.97
2017-10-13T06:39:47.994Z,22.01
2017-10-13T06:42:15.596Z,21.99
2017-10-13T06:44:43.138Z,22.88
2017-10-13T06:47:10.797Z,22.84
2017-10-13T06:49:38.393Z,23.43
2017-10-13T06:52:06.000Z,23.56
2017-10-13T06:54:33.650Z,24.02
2017-10-13T06:57:01.295Z,23.75
2017-10-13T06:59:28.876Z,24.27
2017-10-13T07:01:56.502Z,24.15
2017-10-13T07:04:24.087Z,24.08
2017-10-13T07:06:51.695Z,24.17
2017-10-13T07:09:19.274Z,24.55
2017-10-13T07:11:47.209Z,24.76
2017-10-13T07:14:14.785Z,24.37
2017-10-13T07:16:42.409Z,24.17
2017-10-13T07:19:10.167Z,24.49
2017-10-13T07:21:37.953Z,24.42
2017-10-13T07:24:06.492Z,24.81
2017-10-13T07:26:34.114Z,24.86
2017-10-13T07:29:01.893Z,25.34
2017-10-13T07:31:29.631Z,25.68
2017-10-13T07:33:57.299Z,25.57
2017-10-13T07:36:25.128Z,25.92
2017-10-13T07:38:52.717Z,25.90
2017-10-13T07:41:20.325Z,25.97
2017-10-13T07:43:47.892Z,26.43
2017-10-13T07:46:15.507Z,26.34
2017-10-13T07:48:43.089Z,26.31
2017-10-13T07:51:10.735Z,25.91
2017-10-13T07:53:38.379Z,26.47
2017-10-13T07:56:05.991Z,27.28
2017-10-13T07:58:33.613Z,27.28
2017-10-13T08:01:01.211Z,26.85
2017-10-13T08:03:28.800Z,26.59
2017-10-13T08:05:56.615Z,26.49
2017-10-13T08:08:24.213Z,26.86
2017-10-13T08:10:52.015Z,27.36
2017-10-13T08:13:19.551Z,27.56
2017-10-13T08:15:47.161Z,26.95
2017-10-13T08:18:14.941Z,26.97
2017-10-13T08:20:42.508Z,27.59
2017-10-13T08:23:10.259Z,28.01
2017-10-13T08:25:37.911Z,27.78
2017-10-13T08:28:05.499Z,27.62
2017-10-13T08:30:33.111Z,28.32
2017-10-13T08:33:00.859Z,28.03
2017-10-13T08:35:28.449Z,27.87
2017-10-13T08:37:56.895Z,28.15
2017-10-13T08:40:24.734Z,28.45
2017-10-13T08:42:52.504Z,28.00
2017-10-13T08:45:20.085Z,28.26
2017-10-13T08:47:47.831Z,28.12
2017-10-13T08:50:15.411Z,28.48
2017-10-13T08:52:43.062Z,28.03
2017-10-13T08:55:10.665Z,28.17
2017-10-13T08:57:38.294Z,28.06
2017-10-13T09:00:06.417Z,28.19
2017-10-13T09:02:34.000Z,28.33
2017-10-13T09:05:01.570Z,28.18
2017-10-13T09:07:29.199Z,28.53
2017-10-13T09:09:56.778Z,29.25
2017-10-13T09:12:24.550Z,29.03
2017-10-13T09:14:52.146Z,28.97
2017-10-13T09:17:19.852Z,28.73
2017-10-13T09:19:47.453Z,28.94
2017-10-13T09:22:15.081Z,28.35
2017-10-13T09:24:42.653Z,27.64
2017-10-13T09:27:10.205Z,26.42
2017-10-13T09:29:37.812Z,27.62
2017-10-13T09:32:05.490Z,27.45
2017-10-13T09:34:33.043Z,28.35
2017-10-13T09:37:00.617Z,28.30
2017-10-13T09:39:28.382Z,28.39
2017-10-13T09:41:55.997Z,28.11
2017-10-13T09:44:23.584Z,27.75
2017-10-13T09:46:51.144Z,27.87
2017-10-13T09:49:18.746Z,27.85
2017-10-13T09:51:46.284Z,27.49
2017-10-13T09:54:13.942Z,27.51
2017-10-13T09:56:41.477Z,27.84
2017-10-13T09:59:09.013Z,27.95
2017-10-13T10:01:36.600Z,28.30
2017-10-13T10:04:04.254Z,28.64
2017-10-13T10:06:31.839Z,28.66
2017-10-13T10:08:59.415Z,28.32
2017-10-13T10:11:26.971Z,28.66
2017-10-13T10:13:54.499Z,28.31
2017-10-13T10:16:22.082Z,27.89
2017-10-13T10:18:49.638Z,28.21
2017-10-13T10:21:17.201Z,28.59
2017-10-13T10:23:44.786Z,28.20
2017-10-13T10:26:12.404Z,27.56
2017-10-13T10:28:40.009Z,27.25
2017-10-13T10:31:07.634Z,27.31
2017-10-13T10:33:35.177Z,27.49
2017-10-13T10:36:02.792Z,27.30
2017-10-13T10:38:30.499Z,27.02
2017-10-13T10:40:58.010Z,26.66
2017-10-13T10:43:25.533Z,26.50
2017-10-13T10:45:53.138Z,26.26
2017-10-13T10:48:20.677Z,26.52
2017-10-13T10:50:48.245Z,26.45
2017-10-13T10:53:15.850Z,26.69
2017-10-13T10:55:43.443Z,26.83
2017-10-13T10:58:11.018Z,26.65
2017-10-13T11:00:38.639Z,26.92
2017-10-13T11:03:06.184Z,26.77
2017-10-13T11:05:33.711Z,26.80
2017-10-13T11:08:01.518Z,26.88
2017-10-13T11:10:30.178Z,26.88
2017-10-13T11:12:57.815Z,26.65
2017-10-13T11:15:25.444Z,26.38
2017-10-13T11:17:53.771Z,26.35
2017-10-13T11:20:21.299Z,26.33
2017-10-13T11:22:48.879Z,25.87
2017-10-13T11:25:16.750Z,25.63
2017-10-13T11:27:44.551Z,25.44
2017-10-13T11:30:13.213Z,25.08
2017-10-13T11:32:41.667Z,24.94
2017-10-13T11:35:09.281Z,24.68
2017-10-13T11:37:36.998Z,24.50
2017-10-13T11:40:04.559Z,24.30
2017-10-13T11:42:32.105Z,24.17
2017-10-13T11:44:59.709Z,23.78
2017-10-13T11:47:27.248Z,24.37
2017-10-13T11:49:58.608Z,24.76
2017-10-13T11:52:26.213Z,24.83
2017-10-13T11:54:53.790Z,24.61
2017-10-13T11:57:21.322Z,24.19
2017-10-13T11:59:48.915Z,24.05
2017-10-13T12:02:16.485Z,23.96
2017-10-13T12:04:44.297Z,23.64
2017-10-13T12:07:11.845Z,23.62
2017-10-13T12:09:39.548Z,23.43
2017-10-13T12:12:07.344Z,23.41
2017-10-13T12:14:34.857Z,23.20
2017-10-13T12:17:02.512Z,23.20
2017-10-13T12:19:30.037Z,23.10
2017-10-13T12:21:57.844Z,23.06
2017-10-13T12:24:25.406Z,22.93
2017-10-13T12:26:52.916Z,22.75
2017-10-13T12:29:21.264Z,22.50
2017-10-13T12:31:48.849Z,22.38
2017-10-13T12:34:16.402Z,22.26
2017-10-13T12:36:44.864Z,22.18
2017-10-13T12:39:12.764Z,22.17
2017-10-13T12:41:40.380Z,22.18
2017-10-13T12:44:07.910Z,21.85
2017-10-13T12:46:35.499Z,21.90
2017-10-13T12:49:03.089Z,21.90
2017-10-13T12:51:30.626Z,21.80
2017-10-13T12:53:58.319Z,21.93
2017-10-13T12:56:25.952Z,21.91
2017-10-13T12:58:53.461Z,21.93
2017-10-13T13:01:21.135Z,22.01
2017-10-13T13:03:48.664Z,22.13
2017-10-13T13:06:16.520Z,22.16
2017-10-13T13:08:44.117Z,22.09
2017-10-13T13:11:11.808Z,22.04
2017-10-13T13:13:39.437Z,21.80
2017-10-13T13:16:07.666Z,22.02
2017-10-13T13:18:35.222Z,22.21
2017-10-13T13:21:02.795Z,22.42
2017-10-13T13:23:30.480Z,22.71
2017-10-13T13:25:58.153Z,22.75
2017-10-13T13:28:25.699Z,22.80
2017-10-13T13:30:53.358Z,22.97
2017-10-13T13:33:20.953Z,23.03
2017-10-13T13:35:48.518Z,22.77
2017-10-13T13:38:16.166Z,22.49
2017-10-13T13:40:43.779Z,22.58
2017-10-13T13:43:11.295Z,22.42
2017-10-13T13:45:38.888Z,22.26
2017-10-13T13:48:06.688Z,22.27
2017-10-13T13:50:34.245Z,22.16
2017-10-13T13:53:02.575Z,22.40
2017-10-13T13:55:30.179Z,22.37
2017-10-13T13:57:57.767Z,22.33
2017-10-13T14:00:25.350Z,22.34
2017-10-13T14:02:52.921Z,22.18
2017-10-13T14:05:20.750Z,21.99
2017-10-13T14:07:48.347Z,21.97
2017-10-13T14:10:15.927Z,21.83
2017-10-13T14:12:43.819Z,21.69
2017-10-13T14:15:11.398Z,21.65
2017-10-13T14:17:38.963Z,21.49
2017-10-13T14:20:06.943Z,21.34
2017-10-13T14:22:34.525Z,21.24
2017-10-13T14:25:02.074Z,21.36
2017-10-13T14:27:29.664Z,21.11
2017-10-13T14:29:57.375Z,21.21
2017-10-13T14:32:24.967Z,21.12
2017-10-13T14:34:52.566Z,21.10
2017-10-13T14:37:20.122Z,21.10
2017-10-13T14:39:47.745Z,20.82
2017-10-13T14:42:15.361Z,20.87
2017-10-13T14:44:42.939Z,20.77
2017-10-13T14:47:10.599Z,20.71
2017-10-13T14:49:38.338Z,20.62
2017-10-13T14:52:05.894Z,20.70
2017-10-13T14:54:33.470Z,20.64
2017-10-13T14:57:00.988Z,20.51
2017-10-13T14:59:28.609Z,20.54
2017-10-13T15:01:56.298Z,20.53
2017-10-13T15:04:24.070Z,20.47
2017-10-13T15:06:51.647Z,20.37
2017-10-13T15:09:19.250Z,20.28
2017-10-13T15:11:46.817Z,20.32
2017-10-13T15:14:14.604Z,20.28
2017-10-13T15:16:42.309Z,20.18
2017-10-13T15:19:10.107Z,20.07
2017-10-13T15:21:37.806Z,20.12
2017-10-13T15:24:05.407Z,20.07
2017-10-13T15:26:32.998Z,20.05
2017-10-13T15:29:06.291Z,20.04
2017-10-13T15:31:39.582Z,20.02
2017-10-13T15:34:13.116Z,19.97
2017-10-13T15:36:40.881Z,19.98
2017-10-13T15:42:31.626Z,19.78
2017-10-13T15:44:59.296Z,19.58
2017-10-13T15:47:32.685Z,19.54
2017-10-13T15:50:05.830Z,19.54
2017-10-13T15:52:33.539Z,19.43
2017-10-13T15:55:02.546Z,19.39
2017-10-13T15:57:30.135Z,19.33
2017-10-13T15:59:58.048Z,19.18
2017-10-13T16:02:25.769Z,19.11
2017-10-13T16:04:53.697Z,19.35
2017-10-13T16:07:21.285Z,19.26
2017-10-13T16:09:49.182Z,19.06
2017-10-13T16:12:17.141Z,18.97
2017-10-13T16:14:44.718Z,18.88
2017-10-13T16:17:12.656Z,18.82
2017-10-13T16:19:40.517Z,18.86
2017-10-13T16:22:08.502Z,18.75
2017-10-13T16:24:36.207Z,18.75
2017-10-13T16:27:04.509Z,18.77
2017-10-13T16:29:32.434Z,18.72
2017-10-13T16:32:00.455Z,18.64
2017-10-13T16:34:28.699Z,18.57
2017-10-13T16:36:56.529Z,18.51
2017-10-13T16:39:24.863Z,18.57
2017-10-13T16:41:52.751Z,18.42
2017-10-13T16:44:20.801Z,18.44
2017-10-13T16:46:48.939Z,18.47
2017-10-13T16:49:17.516Z,18.37
2017-10-13T16:51:45.347Z,18.21
2017-10-13T16:54:13.266Z,18.16
2017-10-13T16:56:41.092Z,17.91
2017-10-13T16:59:09.091Z,18.02
2017-10-13T17:01:37.161Z,18.11
2017-10-13T17:04:05.206Z,18.15
2017-10-13T17:06:33.081Z,18.18
2017-10-13T17:09:01.088Z,18.14
2017-10-13T17:11:28.978Z,18.13
2017-10-13T17:13:56.702Z,18.08
2017-10-13T17:16:24.601Z,18.10
2017-10-13T17:18:52.538Z,18.02
2017-10-13T17:21:20.415Z,18.01
2017-10-13T17:23:48.451Z,17.90
2017-10-13T17:26:16.294Z,17.82
2017-10-13T17:28:44.114Z,17.81
2017-10-13T17:31:12.265Z,17.68
2017-10-13T17:33:40.325Z,17.69
2017-10-13T17:36:08.473Z,17.85
2017-10-13T17:38:36.558Z,18.22
2017-10-13T17:41:04.893Z,18.59
2017-10-13T17:43:33.208Z,18.64
2017-10-13T17:46:02.452Z,18.37
2017-10-13T17:48:31.010Z,17.95
2017-10-13T17:50:59.992Z,17.83
2017-10-13T17:53:28.340Z,17.56
2017-10-13T17:55:59.988Z,17.49
2017-10-13T17:58:28.334Z,17.50
2017-10-13T18:00:57.126Z,17.45
2017-10-13T18:03:25.545Z,17.44
2017-10-13T18:05:53.907Z,17.31
2017-10-13T18:08:22.108Z,17.39
2017-10-13T18:10:50.485Z,17.35
2017-10-13T18:13:19.024Z,17.30
2017-10-13T18:15:48.509Z,17.22
2017-10-13T18:18:16.969Z,17.21
2017-10-13T18:20:45.263Z,17.20
2017-10-13T18:23:13.859Z,17.22
2017-10-13T18:25:42.341Z,17.22
2017-10-13T18:28:10.797Z,17.07
2017-10-13T18:30:39.345Z,17.13
2017-10-13T18:33:07.867Z,17.09
2017-10-13T18:35:36.587Z,17.13
2017-10-13T18:38:05.215Z,17.17
2017-10-13T18:40:34.853Z,17.24
2017-10-13T18:43:03.883Z,17.22
2017-10-13T18:48:09.068Z,17.06
2017-10-13T18:50:37.743Z,17.07
2017-10-13T18:53:08.225Z,17.07
2017-10-13T18:55:36.880Z,17.00
2017-10-13T18:58:06.576Z,16.90
2017-10-13T19:00:35.655Z,16.91
2017-10-13T19:03:04.844Z,17.02
2017-10-13T19:05:33.620Z,16.97
2017-10-13T19:08:02.605Z,16.95
2017-10-13T19:10:31.770Z,16.98
2017-10-13T19:13:00.563Z,16.99
2017-10-13T19:15:29.287Z,17.03
2017-10-13T19:17:58.027Z,17.00
2017-10-13T19:20:26.765Z,16.88
2017-10-13T19:22:58.136Z,16.83
2017-10-13T19:25:26.840Z,16.77
2017-10-13T19:27:56.320Z,16.72
2017-10-13T19:30:25.143Z,16.81
2017-10-13T19:32:53.628Z,16.83
2017-10-13T19:35:23.366Z,16.85
2017-10-13T19:37:52.132Z,16.81
2017-10-13T19:40:20.590Z,16.70
2017-10-13T19:42:49.138Z,16.77
2017-10-13T19:45:18.027Z,16.71
2017-10-13T19:47:46.520Z,16.67
2017-10-13T19:50:14.790Z,16.73
2017-10-13T19:52:43.218Z,16.74
2017-10-13T19:55:12.677Z,16.65
2017-10-13T19:57:41.519Z,16.66
2017-10-13T20:00:10.065Z,16.57
2017-10-13T20:02:38.257Z,16.68
2017-10-13T20:05:06.511Z,16.62
2017-10-13T20:07:35.536Z,16.49
2017-10-13T20:10:03.646Z,16.41
2017-10-13T20:12:31.629Z,16.40
2017-10-13T20:15:00.567Z,16.43
2017-10-13T20:17:29.511Z,16.43
2017-10-13T20:19:58.068Z,16.39
2017-10-13T20:22:26.498Z,16.26
2017-10-13T20:24:55.457Z,16.25
2017-10-13T20:27:23.428Z,16.17
2017-10-13T20:29:51.648Z,16.09
2017-10-13T20:32:19.738Z,16.24
2017-10-13T20:34:47.489Z,16.29
2017-10-13T20:37:17.787Z,16.33
2017-10-13T20:39:45.740Z,16.26
2017-10-13T20:42:14.026Z,16.23
2017-10-13T20:44:41.785Z,16.14
2017-10-13T20:47:09.497Z,15.99
2017-10-13T20:49:37.641Z,15.85
2017-10-13T20:52:05.633Z,15.78
2017-10-13T20:54:33.319Z,15.80
2017-10-13T20:57:00.982Z,15.84
2017-10-13T20:59:28.553Z,15.97
2017-10-13T21:01:56.288Z,15.95
2017-10-13T21:04:27.943Z,15.83
2017-10-13T21:06:56.504Z,15.89
2017-10-13T21:09:24.648Z,15.88
2017-10-13T21:12:00.749Z,15.83
2017-10-13T21:14:28.400Z,15.79
2017-10-13T21:16:56.151Z,15.79
2017-10-13T21:19:23.806Z,15.76
2017-10-13T21:21:51.362Z,15.85
2017-10-13T21:24:18.991Z,15.76
2017-10-13T21:26:46.661Z,15.68
2017-10-13T21:29:14.227Z,15.71
2017-10-13T21:31:41.840Z,15.64
2017-10-13T21:34:09.416Z,15.66
2017-10-13T21:36:37.025Z,15.68
2017-10-13T21:39:05.543Z,15.65
2017-10-13T21:41:33.070Z,15.75
2017-10-13T21:44:00.673Z,15.59
2017-10-13T21:46:28.291Z,15.73
2017-10-13T21:48:56.678Z,15.68
2017-10-13T21:51:24.235Z,15.57
2017-10-13T21:53:51.834Z,15.64
2017-10-13T21:56:20.622Z,15.75
2017-10-13T21:58:48.913Z,15.71
2017-10-13T22:01:23.880Z,15.57
2017-10-13T22:03:55.980Z,15.54
2017-10-13T22:06:24.208Z,15.61
2017-10-13T22:08:52.939Z,15.67
2017-10-13T22:11:21.170Z,15.66
2017-10-13T22:13:48.863Z,15.73
2017-10-13T22:16:16.547Z,15.63
2017-10-13T22:18:44.217Z,15.71
2017-10-13T22:21:14.038Z,15.64
2017-10-13T22:23:41.605Z,15.61
2017-10-13T22:26:10.430Z,15.61
2017-10-13T22:28:39.141Z,15.54
2017-10-13T22:31:07.085Z,15.59
2017-10-13T22:33:34.651Z,15.43
2017-10-13T22:36:02.290Z,15.35
2017-10-13T22:38:29.928Z,15.41
2017-10-13T22:40:57.555Z,15.46
2017-10-13T22:43:25.209Z,15.41
2017-10-13T22:45:53.493Z,15.31
2017-10-13T22:48:21.147Z,15.33
2017-10-13T22:50:48.739Z,15.36
2017-10-13T22:53:16.424Z,15.26
2017-10-13T22:55:44.015Z,15.28
2017-10-13T22:58:12.411Z,15.26
2017-10-13T23:00:41.483Z,15.37
2017-10-13T23:03:09.307Z,15.33
2017-10-13T23:05:36.903Z,15.35
2017-10-13T23:08:04.562Z,15.35
2017-10-13T23:10:33.467Z,15.32
2017-10-13T23:13:00.996Z,15.24
2017-10-13T23:15:28.639Z,15.23
2017-10-13T23:17:56.159Z,15.17
2017-10-13T23:20:23.817Z,15.18
2017-10-13T23:22:56.128Z,15.18
2017-10-13T23:25:24.841Z,15.26
2017-10-13T23:27:52.492Z,15.26
2017-10-13T23:30:20.672Z,15.22
2017-10-13T23:32:48.346Z,15.20
2017-10-13T23:35:16.690Z,15.03
2017-10-13T23:37:45.123Z,15.06
2017-10-13T23:40:12.759Z,15.11
2017-10-13T23:42:40.420Z,15.15
2017-10-13T23:45:08.062Z,15.03
2017-10-13T23:47:35.658Z,15.06
2017-10-13T23:50:03.316Z,15.13
2017-10-13T23:52:30.924Z,15.08
2017-10-13T23:54:58.516Z,15.11
2017-10-13T23:57:26.089Z,15.06
2017-10-13T23:59:53.771Z,15.09
